createdAt,value
2018-11-26T00:01:48.707Z,72.28
2018-11-26T00:04:17.919Z,72.28
2018-11-26T00:06:47.131Z,72.45
2018-11-26T00:09:16.613Z,72.38
2018-11-26T00:11:46.788Z,72.56
2018-11-26T00:14:16.281Z,72.43
2018-11-26T00:16:45.532Z,71.76
2018-11-26T00:19:15.376Z,72.54
2018-11-26T00:21:44.649Z,71.86
2018-11-26T00:24:14.869Z,72.09
2018-11-26T00:26:44.307Z,71.70
2018-11-26T00:29:14.381Z,71.74
2018-11-26T00:31:44.105Z,71.73
2018-11-26T00:34:13.299Z,71.37
2018-11-26T00:36:42.595Z,71.38
2018-11-26T00:39:12.519Z,71.70
2018-11-26T00:41:41.749Z,71.88
2018-11-26T00:44:11.051Z,71.41
2018-11-26T00:46:40.227Z,72.12
2018-11-26T00:49:09.480Z,71.91
2018-11-26T00:51:38.634Z,72.05
2018-11-26T00:54:07.823Z,71.37
2018-11-26T00:56:37.023Z,71.11
2018-11-26T00:59:06.229Z,71.98
2018-11-26T01:01:35.438Z,71.28
2018-11-26T01:04:05.027Z,71.28
2018-11-26T01:06:34.231Z,70.79
2018-11-26T01:09:03.669Z,71.22
2018-11-26T01:11:32.825Z,70.76
2018-11-26T01:14:02.044Z,70.75
2018-11-26T01:16:31.246Z,71.22
2018-11-26T01:19:00.490Z,70.78
2018-11-26T01:21:29.716Z,71.23
2018-11-26T01:23:58.999Z,70.22
2018-11-26T01:26:28.234Z,70.15
2018-11-26T01:28:57.532Z,69.88
2018-11-26T01:31:26.749Z,69.88
2018-11-26T01:33:55.937Z,69.55
2018-11-26T01:36:25.156Z,70.08
2018-11-26T01:38:54.426Z,70.18
2018-11-26T01:41:23.693Z,70.06
2018-11-26T01:43:52.895Z,70.33
2018-11-26T01:46:22.122Z,69.63
2018-11-26T01:48:51.357Z,69.29
2018-11-26T01:51:20.647Z,70.00
2018-11-26T01:53:49.914Z,68.33
2018-11-26T01:56:19.209Z,69.12
2018-11-26T01:58:48.484Z,69.97
2018-11-26T02:01:17.819Z,69.64
2018-11-26T02:03:46.983Z,70.00
2018-11-26T02:06:16.827Z,69.68
2018-11-26T02:08:46.088Z,69.67
2018-11-26T02:11:15.929Z,69.41
2018-11-26T02:13:47.946Z,69.07
2018-11-26T02:16:17.888Z,69.67
2018-11-26T02:18:47.107Z,70.01
2018-11-26T02:21:16.989Z,70.43
2018-11-26T02:23:46.228Z,69.85
2018-11-26T02:26:15.798Z,70.39
2018-11-26T02:28:45.026Z,70.61
2018-11-26T02:31:14.875Z,69.65
2018-11-26T02:33:44.071Z,69.79
2018-11-26T02:36:13.940Z,69.84
2018-11-26T02:38:43.109Z,70.27
2018-11-26T02:41:12.326Z,69.92
2018-11-26T02:43:41.580Z,69.54
2018-11-26T02:46:11.383Z,70.31
2018-11-26T02:48:40.819Z,69.84
2018-11-26T02:51:10.078Z,68.55
2018-11-26T02:53:39.349Z,69.60
2018-11-26T02:56:08.557Z,69.43
2018-11-26T02:58:37.820Z,69.59
2018-11-26T03:01:07.285Z,69.11
2018-11-26T03:03:36.600Z,69.48
2018-11-26T03:06:06.129Z,69.81
2018-11-26T03:08:35.428Z,69.09
2018-11-26T03:11:04.728Z,68.79
2018-11-26T03:13:34.015Z,69.44
2018-11-26T03:16:03.233Z,68.71
2018-11-26T03:18:32.421Z,68.64
2018-11-26T03:21:01.636Z,69.23
2018-11-26T03:23:30.887Z,69.23
2018-11-26T03:26:00.093Z,69.28
2018-11-26T03:28:29.280Z,69.91
2018-11-26T03:30:58.516Z,69.47
2018-11-26T03:33:27.925Z,69.41
2018-11-26T03:35:57.279Z,69.87
2018-11-26T03:39:04.473Z,69.25
2018-11-26T03:41:33.770Z,69.55
2018-11-26T03:44:03.047Z,69.20
2018-11-26T03:46:32.306Z,68.83
2018-11-26T03:49:01.505Z,68.91
2018-11-26T03:51:30.801Z,69.07
2018-11-26T03:54:00.102Z,69.61
2018-11-26T03:56:30.219Z,69.39
2018-11-26T03:58:59.531Z,69.94
2018-11-26T04:01:28.806Z,69.74
2018-11-26T04:03:58.085Z,69.84
2018-11-26T04:06:27.491Z,70.58
2018-11-26T04:08:56.805Z,70.12
2018-11-26T04:11:26.114Z,70.42
2018-11-26T04:13:55.386Z,70.78
2018-11-26T04:16:24.627Z,71.19
2018-11-26T04:18:53.883Z,71.29
2018-11-26T04:21:23.228Z,71.24
2018-11-26T04:23:52.448Z,70.84
2018-11-26T04:26:21.659Z,71.42
2018-11-26T04:28:50.919Z,71.76
2018-11-26T04:31:20.146Z,72.33
2018-11-26T04:33:49.418Z,72.09
2018-11-26T04:36:18.752Z,72.09
2018-11-26T04:38:47.947Z,72.31
2018-11-26T04:41:17.643Z,72.04
2018-11-26T04:43:47.029Z,72.33
2018-11-26T04:46:16.559Z,72.22
2018-11-26T04:48:45.750Z,72.33
2018-11-26T04:51:15.534Z,71.68
2018-11-26T04:53:44.915Z,71.73
2018-11-26T04:56:14.760Z,72.41
2018-11-26T04:58:44.064Z,73.03
2018-11-26T05:01:13.385Z,72.27
2018-11-26T05:03:42.779Z,72.49
2018-11-26T05:06:12.083Z,72.90
2018-11-26T05:08:41.436Z,72.48
2018-11-26T05:11:10.814Z,72.90
2018-11-26T05:13:40.032Z,73.16
2018-11-26T05:16:09.324Z,72.84
2018-11-26T05:18:38.587Z,73.50
2018-11-26T05:21:07.900Z,73.63
2018-11-26T05:23:37.117Z,73.58
2018-11-26T05:26:06.582Z,73.29
2018-11-26T05:28:35.796Z,73.46
2018-11-26T05:31:05.150Z,73.34
2018-11-26T05:33:34.313Z,73.67
2018-11-26T05:36:03.513Z,73.20
2018-11-26T05:38:32.707Z,73.15
2018-11-26T05:41:02.557Z,73.44
2018-11-26T05:43:31.845Z,73.25
2018-11-26T05:46:01.172Z,73.42
2018-11-26T05:48:30.362Z,73.59
2018-11-26T05:50:59.641Z,73.31
2018-11-26T05:53:28.908Z,73.45
2018-11-26T05:55:58.190Z,73.41
2018-11-26T05:58:27.420Z,72.44
2018-11-26T06:00:56.765Z,73.15
2018-11-26T06:03:26.016Z,72.53
2018-11-26T06:05:55.224Z,72.40
2018-11-26T06:08:24.443Z,72.42
2018-11-26T06:10:53.712Z,72.42
2018-11-26T06:13:23.024Z,72.51
2018-11-26T06:15:52.251Z,72.78
2018-11-26T06:18:21.932Z,72.38
2018-11-26T06:20:52.362Z,71.29
2018-11-26T06:23:21.572Z,70.78
2018-11-26T06:25:50.872Z,71.13
2018-11-26T06:28:20.257Z,72.21
2018-11-26T06:30:49.431Z,71.55
2018-11-26T06:33:18.736Z,71.90
2018-11-26T06:35:47.975Z,72.17
2018-11-26T06:38:17.285Z,72.61
2018-11-26T06:40:46.479Z,71.62
2018-11-26T06:43:15.753Z,71.32
2018-11-26T06:45:45.210Z,71.17
2018-11-26T06:48:14.481Z,71.64
2018-11-26T06:50:44.423Z,71.95
2018-11-26T06:53:16.535Z,71.92
2018-11-26T06:55:45.761Z,71.88
2018-11-26T06:58:15.060Z,71.90
2018-11-26T07:00:44.337Z,70.95
2018-11-26T07:03:13.557Z,70.95
2018-11-26T07:05:51.468Z,70.77
2018-11-26T07:08:20.816Z,70.08
2018-11-26T07:10:50.010Z,70.83
2018-11-26T07:13:19.416Z,71.15
2018-11-26T07:15:48.633Z,70.46
2018-11-26T07:18:17.884Z,70.56
2018-11-26T07:20:47.100Z,69.96
2018-11-26T07:23:16.332Z,70.94
2018-11-26T07:25:45.547Z,71.01
2018-11-26T07:28:16.941Z,70.42
2018-11-26T07:30:46.153Z,70.05
2018-11-26T07:33:15.399Z,70.16
2018-11-26T07:35:44.599Z,70.27
2018-11-26T07:38:13.785Z,69.79
2018-11-26T07:40:42.939Z,69.94
2018-11-26T07:43:13.175Z,69.04
2018-11-26T07:45:42.383Z,68.97
2018-11-26T07:48:12.293Z,69.08
2018-11-26T07:50:41.529Z,68.99
2018-11-26T07:53:11.734Z,68.96
2018-11-26T07:55:41.251Z,68.70
2018-11-26T07:58:10.994Z,69.05
2018-11-26T08:00:40.258Z,69.20
2018-11-26T08:03:09.875Z,69.23
2018-11-26T08:05:39.111Z,69.12
2018-11-26T08:08:08.683Z,68.35
2018-11-26T08:10:38.102Z,68.01
2018-11-26T08:13:07.318Z,69.32
2018-11-26T08:15:36.571Z,68.96
2018-11-26T08:18:05.881Z,69.09
2018-11-26T08:20:35.123Z,68.22
2018-11-26T08:23:04.326Z,68.22
2018-11-26T08:25:33.556Z,68.06
2018-11-26T08:28:02.817Z,67.94
2018-11-26T08:30:32.100Z,68.27
2018-11-26T08:33:01.909Z,68.91
2018-11-26T08:35:31.501Z,69.40
2018-11-26T08:38:06.009Z,68.75
2018-11-26T08:40:40.603Z,68.29
2018-11-26T08:43:15.430Z,68.76
2018-11-26T08:45:52.812Z,68.89
2018-11-26T08:48:26.100Z,68.02
2018-11-26T08:50:57.241Z,68.74
2018-11-26T08:53:26.449Z,67.25
2018-11-26T08:55:55.757Z,66.53
2018-11-26T08:58:24.999Z,66.93
2018-11-26T09:00:59.459Z,66.84
2018-11-26T09:03:33.752Z,66.14
2018-11-26T09:06:03.709Z,67.04
2018-11-26T09:08:33.972Z,65.93
2018-11-26T09:11:03.888Z,65.65
2018-11-26T09:13:33.144Z,65.15
2018-11-26T09:16:02.362Z,65.96
2018-11-26T09:18:31.585Z,64.78
2018-11-26T09:21:00.858Z,63.62
2018-11-26T09:23:30.091Z,64.48
2018-11-26T09:25:59.312Z,65.02
2018-11-26T09:28:28.493Z,64.95
2018-11-26T09:30:57.749Z,64.51
2018-11-26T09:33:26.935Z,65.03
2018-11-26T09:35:56.216Z,63.75
2018-11-26T09:38:25.452Z,63.49
2018-11-26T09:40:55.078Z,64.05
2018-11-26T09:43:24.457Z,64.01
2018-11-26T09:45:53.612Z,64.16
2018-11-26T09:48:22.859Z,64.59
2018-11-26T09:50:52.103Z,64.28
2018-11-26T09:53:21.332Z,63.72
2018-11-26T09:55:50.572Z,64.27
2018-11-26T09:58:19.789Z,63.51
2018-11-26T10:00:49.110Z,63.82
2018-11-26T10:03:18.356Z,63.68
2018-11-26T10:05:47.584Z,63.55
2018-11-26T10:08:16.811Z,62.43
2018-11-26T10:10:46.023Z,62.89
2018-11-26T10:13:15.239Z,62.81
2018-11-26T10:15:44.546Z,63.25
2018-11-26T10:18:13.856Z,62.87
2018-11-26T10:20:43.182Z,62.46
2018-11-26T10:23:12.477Z,62.92
2018-11-26T10:25:41.702Z,63.57
2018-11-26T10:28:11.082Z,63.19
2018-11-26T10:30:40.301Z,62.07
2018-11-26T10:33:14.635Z,62.18
2018-11-26T10:35:39.183Z,61.88
2018-11-26T10:38:09.828Z,62.37
2018-11-26T10:40:39.139Z,61.81
2018-11-26T10:43:11.761Z,61.97
2018-11-26T10:45:38.231Z,62.94
2018-11-26T10:48:07.730Z,62.83
2018-11-26T10:50:36.950Z,62.08
2018-11-26T10:53:06.439Z,62.54
2018-11-26T10:55:36.463Z,61.74
2018-11-26T10:58:06.788Z,61.07
2018-11-26T11:00:41.842Z,60.92
2018-11-26T11:03:12.577Z,61.60
2018-11-26T11:05:42.625Z,61.58
2018-11-26T11:08:13.541Z,61.01
2018-11-26T11:10:44.106Z,61.29
2018-11-26T11:13:15.179Z,60.62
2018-11-26T11:15:45.357Z,61.59
2018-11-26T11:18:14.584Z,61.01
2018-11-26T11:20:43.909Z,61.48
2018-11-26T11:23:13.249Z,61.73
2018-11-26T11:25:42.726Z,61.45
2018-11-26T11:28:11.990Z,61.40
2018-11-26T11:30:41.181Z,62.08
2018-11-26T11:35:39.098Z,61.79
2018-11-26T11:38:08.662Z,61.48
2018-11-26T11:40:37.993Z,62.08
2018-11-26T11:43:07.243Z,61.72
2018-11-26T11:45:36.501Z,61.89
2018-11-26T11:48:06.353Z,61.66
2018-11-26T11:50:35.599Z,60.72
2018-11-26T11:53:05.294Z,60.20
2018-11-26T11:55:37.384Z,59.81
2018-11-26T11:58:06.780Z,60.03
2018-11-26T12:00:41.123Z,59.75
2018-11-26T12:03:15.341Z,60.14
2018-11-26T12:05:44.722Z,61.09
2018-11-26T12:08:14.138Z,61.78
2018-11-26T12:10:43.405Z,61.80
2018-11-26T12:13:14.204Z,62.40
2018-11-26T12:15:46.639Z,62.67
2018-11-26T12:18:15.900Z,62.59
2018-11-26T12:20:45.110Z,63.06
2018-11-26T12:23:14.399Z,64.12
2018-11-26T12:25:43.614Z,63.90
2018-11-26T12:28:12.795Z,64.51
2018-11-26T12:30:46.076Z,63.39
2018-11-26T12:33:15.266Z,63.35
2018-11-26T12:35:44.519Z,63.14
2018-11-26T12:38:13.730Z,63.30
2018-11-26T12:40:42.995Z,63.37
2018-11-26T12:43:12.481Z,64.89
2018-11-26T12:45:41.724Z,64.31
2018-11-26T12:48:11.249Z,63.70
2018-11-26T12:50:40.540Z,63.56
2018-11-26T12:53:10.173Z,63.65
2018-11-26T12:55:39.391Z,63.88
2018-11-26T12:58:09.045Z,63.60
2018-11-26T13:00:38.619Z,63.78
2018-11-26T13:03:11.311Z,63.52
2018-11-26T13:05:40.581Z,63.94
2018-11-26T13:08:10.195Z,64.28
2018-11-26T13:10:39.469Z,63.49
2018-11-26T13:13:10.159Z,64.23
2018-11-26T13:15:39.397Z,64.29
2018-11-26T13:18:09.096Z,64.27
2018-11-26T13:20:38.321Z,63.62
2018-11-26T13:23:09.109Z,63.88
2018-11-26T13:25:41.805Z,64.06
2018-11-26T13:28:09.554Z,64.10
2018-11-26T13:30:44.325Z,63.71
2018-11-26T13:33:14.993Z,63.57
2018-11-26T13:35:44.918Z,63.68
2018-11-26T13:38:14.304Z,63.65
2018-11-26T13:40:43.564Z,63.74
2018-11-26T13:43:14.401Z,63.63
2018-11-26T13:45:44.929Z,63.11
2018-11-26T13:48:15.325Z,63.90
2018-11-26T13:50:46.698Z,62.84
2018-11-26T13:53:15.937Z,62.74
2018-11-26T13:55:45.154Z,62.91
2018-11-26T13:58:14.394Z,63.24
2018-11-26T14:00:43.637Z,63.02
2018-11-26T14:03:12.857Z,63.17
2018-11-26T14:05:42.052Z,63.21
2018-11-26T14:08:11.421Z,62.89
2018-11-26T14:10:40.626Z,63.07
2018-11-26T14:13:12.699Z,64.01
2018-11-26T14:15:41.957Z,63.48
2018-11-26T14:18:11.589Z,62.72
2018-11-26T14:20:40.826Z,63.52
2018-11-26T14:23:10.613Z,63.18
2018-11-26T14:25:39.837Z,63.30
2018-11-26T14:28:09.561Z,63.29
2018-11-26T14:30:38.810Z,63.58
2018-11-26T14:33:08.027Z,63.79
2018-11-26T14:35:37.205Z,63.75
2018-11-26T14:38:09.047Z,62.41
2018-11-26T14:40:44.518Z,63.43
2018-11-26T14:43:13.725Z,61.91
2018-11-26T14:45:42.939Z,62.46
2018-11-26T14:48:12.183Z,62.01
2018-11-26T14:50:41.397Z,62.70
2018-11-26T14:53:12.881Z,63.17
2018-11-26T14:55:42.089Z,62.51
2018-11-26T14:58:11.321Z,63.36
2018-11-26T15:00:41.666Z,62.71
2018-11-26T15:03:11.012Z,63.07
2018-11-26T15:05:40.190Z,63.75
2018-11-26T15:08:09.753Z,63.07
2018-11-26T15:10:38.941Z,63.44
2018-11-26T15:13:08.789Z,63.44
2018-11-26T15:15:38.037Z,63.68
2018-11-26T15:18:07.617Z,63.54
2018-11-26T15:20:36.829Z,63.38
2018-11-26T15:23:07.277Z,64.16
2018-11-26T15:25:36.480Z,63.35
2018-11-26T15:28:08.954Z,63.34
2018-11-26T15:30:38.819Z,63.44
2018-11-26T15:33:08.773Z,64.73
2018-11-26T15:35:38.014Z,64.34
2018-11-26T15:38:07.368Z,63.99
2018-11-26T15:40:36.643Z,64.97
2018-11-26T15:43:06.404Z,64.74
2018-11-26T15:45:35.830Z,64.09
2018-11-26T15:48:07.674Z,64.40
2018-11-26T15:50:36.902Z,64.69
2018-11-26T15:53:07.174Z,64.44
2018-11-26T15:55:36.544Z,64.68
2018-11-26T15:58:06.573Z,64.34
2018-11-26T16:00:35.928Z,64.31
2018-11-26T16:03:05.638Z,64.86
2018-11-26T16:05:34.918Z,64.30
2018-11-26T16:08:07.186Z,64.52
2018-11-26T16:10:36.472Z,64.67
2018-11-26T16:13:07.168Z,65.21
2018-11-26T16:15:37.909Z,64.98
2018-11-26T16:18:08.845Z,65.02
2018-11-26T16:20:38.122Z,64.50
2018-11-26T16:23:08.739Z,65.38
2018-11-26T16:25:39.923Z,64.77
2018-11-26T16:28:09.541Z,64.54
2018-11-26T16:30:38.802Z,64.90
2018-11-26T16:33:08.537Z,65.20
2018-11-26T16:35:37.840Z,65.41
2018-11-26T16:38:07.830Z,65.56
2018-11-26T16:40:37.036Z,64.95
2018-11-26T16:43:06.834Z,65.26
2018-11-26T16:45:36.060Z,64.70
2018-11-26T16:48:05.391Z,65.44
2018-11-26T16:50:35.817Z,65.20
2018-11-26T16:53:05.229Z,65.19
2018-11-26T16:55:34.398Z,64.71
2018-11-26T16:58:03.845Z,65.92
2018-11-26T17:00:33.105Z,65.06
2018-11-26T17:03:02.590Z,64.72
2018-11-26T17:05:37.728Z,64.98
2018-11-26T17:08:08.495Z,65.63
2018-11-26T17:10:37.704Z,65.24
2018-11-26T17:13:07.134Z,65.82
2018-11-26T17:15:36.602Z,65.43
2018-11-26T17:18:06.903Z,65.48
2018-11-26T17:20:37.196Z,65.13
2018-11-26T17:23:06.910Z,66.03
2018-11-26T17:25:36.825Z,65.78
2018-11-26T17:28:06.484Z,65.67
2018-11-26T17:30:36.119Z,66.34
2018-11-26T17:33:06.260Z,65.95
2018-11-26T17:35:35.559Z,66.73
2018-11-26T17:38:04.819Z,66.19
2018-11-26T17:40:34.034Z,66.34
2018-11-26T17:43:03.226Z,66.73
2018-11-26T17:45:32.473Z,66.69
2018-11-26T17:48:01.737Z,66.30
2018-11-26T17:50:33.441Z,65.71
2018-11-26T17:53:02.704Z,66.07
2018-11-26T17:55:31.994Z,65.84
2018-11-26T17:58:01.229Z,66.65
2018-11-26T18:00:33.491Z,65.52
2018-11-26T18:03:02.782Z,66.30
2018-11-26T18:05:32.344Z,66.84
2018-11-26T18:08:18.293Z,65.75
2018-11-26T18:10:47.529Z,66.17
2018-11-26T18:13:16.817Z,66.44
2018-11-26T18:15:46.156Z,65.95
2018-11-26T18:18:16.989Z,65.46
2018-11-26T18:20:46.678Z,66.46
2018-11-26T18:23:16.791Z,66.45
2018-11-26T18:25:45.995Z,66.87
2018-11-26T18:28:16.450Z,66.29
2018-11-26T18:30:46.968Z,66.01
2018-11-26T18:33:16.801Z,66.02
2018-11-26T18:35:46.902Z,66.22
2018-11-26T18:38:17.264Z,66.21
2018-11-26T18:41:15.729Z,66.24
2018-11-26T18:43:45.124Z,66.92
2018-11-26T18:46:15.003Z,66.52
2018-11-26T18:48:45.375Z,65.92
2018-11-26T18:51:15.085Z,66.26
2018-11-26T18:53:44.431Z,66.08
2018-11-26T18:56:14.390Z,66.41
2018-11-26T18:58:43.651Z,65.90
2018-11-26T19:01:13.971Z,65.45
2018-11-26T19:03:43.219Z,66.54
2018-11-26T19:06:13.182Z,65.62
2018-11-26T19:08:42.386Z,66.00
2018-11-26T19:11:14.838Z,65.84
2018-11-26T19:13:53.411Z,66.35
2018-11-26T19:16:24.589Z,66.15
2018-11-26T19:18:53.784Z,66.81
2018-11-26T19:21:25.847Z,67.03
2018-11-26T19:23:55.050Z,66.56
2018-11-26T19:26:24.393Z,67.11
2018-11-26T19:28:53.617Z,66.17
2018-11-26T19:31:22.852Z,66.32
2018-11-26T19:33:52.110Z,65.81
2018-11-26T19:36:21.367Z,66.62
2018-11-26T19:38:50.582Z,66.53
2018-11-26T19:41:19.817Z,65.24
2018-11-26T19:43:49.137Z,64.82
2018-11-26T19:46:18.359Z,65.02
2018-11-26T19:48:47.650Z,64.92
2018-11-26T19:51:16.924Z,65.09
2018-11-26T19:53:46.154Z,64.80
2018-11-26T19:56:15.695Z,64.72
2018-11-26T19:58:44.942Z,64.77
2018-11-26T20:01:15.027Z,63.69
2018-11-26T20:03:46.977Z,64.91
2018-11-26T20:06:18.405Z,64.43
2018-11-26T20:08:49.054Z,64.67
2018-11-26T20:11:18.395Z,63.79
2018-11-26T20:13:48.750Z,64.37
2018-11-26T20:16:25.883Z,64.67
2018-11-26T20:18:55.166Z,65.18
2018-11-26T20:21:24.404Z,65.29
2018-11-26T20:23:53.625Z,65.79
2018-11-26T20:26:22.883Z,66.58
2018-11-26T20:28:56.793Z,66.05
2018-11-26T20:31:21.679Z,66.15
2018-11-26T20:33:51.716Z,66.56
2018-11-26T20:36:21.768Z,66.22
2018-11-26T20:38:50.981Z,65.47
2018-11-26T20:41:20.245Z,65.72
2018-11-26T20:43:49.442Z,65.77
2018-11-26T20:46:18.670Z,65.69
2018-11-26T20:48:47.945Z,65.93
2018-11-26T20:51:17.486Z,65.79
2018-11-26T20:53:46.732Z,65.90
2018-11-26T20:56:18.255Z,65.93
2018-11-26T20:58:47.963Z,65.84
2018-11-26T21:01:17.741Z,66.15
2018-11-26T21:03:46.986Z,65.68
2018-11-26T21:06:16.378Z,65.05
2018-11-26T21:08:45.630Z,66.45
2018-11-26T21:11:15.331Z,66.74
2018-11-26T21:13:44.619Z,66.33
2018-11-26T21:16:13.858Z,65.63
2018-11-26T21:18:43.205Z,65.83
2018-11-26T21:21:12.985Z,66.42
2018-11-26T21:23:42.186Z,65.40
2018-11-26T21:26:11.598Z,65.92
2018-11-26T21:28:40.978Z,65.60
2018-11-26T21:31:10.218Z,65.53
2018-11-26T21:33:39.442Z,65.98
2018-11-26T21:36:08.923Z,65.94
2018-11-26T21:38:39.682Z,66.01
2018-11-26T21:41:08.960Z,65.42
2018-11-26T21:43:38.251Z,65.71
2018-11-26T21:46:08.311Z,65.76
2018-11-26T21:48:37.608Z,65.55
2018-11-26T21:51:06.943Z,66.10
2018-11-26T21:53:36.181Z,65.85
2018-11-26T21:56:05.527Z,65.79
2018-11-26T21:58:34.778Z,64.76
2018-11-26T22:01:06.184Z,64.73
2018-11-26T22:03:35.654Z,65.06
2018-11-26T22:06:05.474Z,64.69
2018-11-26T22:08:34.972Z,64.44
2018-11-26T22:11:04.302Z,64.88
2018-11-26T22:13:33.639Z,65.19
2018-11-26T22:16:02.877Z,65.40
2018-11-26T22:18:32.209Z,66.09
2018-11-26T22:21:01.437Z,65.22
2018-11-26T22:23:30.658Z,65.48
2018-11-26T22:25:59.918Z,66.00
2018-11-26T22:28:29.171Z,66.56
2018-11-26T22:30:58.494Z,66.36
2018-11-26T22:33:27.717Z,66.08
2018-11-26T22:35:57.566Z,65.11
2018-11-26T22:38:26.827Z,65.30
2018-11-26T22:40:56.100Z,65.79
2018-11-26T22:43:25.342Z,65.91
2018-11-26T22:45:54.668Z,65.89
2018-11-26T22:48:23.902Z,65.25
2018-11-26T22:50:53.157Z,65.52
2018-11-26T22:53:22.437Z,66.05
2018-11-26T22:55:51.653Z,65.85
2018-11-26T22:58:21.011Z,65.29
2018-11-26T23:00:52.736Z,67.46
2018-11-26T23:03:25.083Z,65.50
2018-11-26T23:05:54.316Z,66.05
2018-11-26T23:08:23.926Z,65.31
2018-11-26T23:10:53.177Z,65.37
2018-11-26T23:13:23.466Z,64.82
2018-11-26T23:15:52.681Z,64.59
2018-11-26T23:18:21.929Z,65.46
2018-11-26T23:20:52.687Z,65.47
2018-11-26T23:23:22.065Z,65.92
2018-11-26T23:25:52.060Z,65.68
2018-11-26T23:28:21.317Z,65.47
2018-11-26T23:30:50.592Z,65.74
2018-11-26T23:33:19.854Z,65.84
2018-11-26T23:35:50.340Z,65.69
2018-11-26T23:38:21.486Z,65.93
2018-11-26T23:40:50.770Z,66.14
2018-11-26T23:43:19.973Z,66.18
2018-11-26T23:45:49.189Z,66.11
2018-11-26T23:48:18.768Z,66.78
2018-11-26T23:50:48.021Z,65.86
2018-11-26T23:53:17.299Z,65.99
2018-11-26T23:55:46.608Z,65.83
2018-11-26T23:58:16.470Z,65.79
